Time;durP1;ratioP1;P1;durP2;ratioP2;P2;SDS_P1;SDS_P2;PMS_P1;PMS_P2;Temp;Humidity;BMP_temperature;BMP_pressure;BME280_temperature;BME280_humidity;BME280_pressure;Samples;Min_cycle;Max_cycle;Signal;HPM_P1;HPM_P2
2022/11/09 00:01:45;;;;;;;7.63;2.80;;;9.90;98.00;;;;;;5033451;28;20462;-66
2022/11/09 00:04:13;;;;;;;6.17;2.83;;;10.00;98.00;;;;;;5015661;28;20459;-66
2022/11/09 00:06:42;;;;;;;3.40;1.97;;;10.00;98.00;;;;;;5032983;28;20469;-66
2022/11/09 00:09:10;;;;;;;4.63;2.47;;;9.90;98.00;;;;;;5015370;28;20457;-67
2022/11/09 00:11:37;;;;;;;4.57;2.60;;;9.90;98.00;;;;;;5015427;28;20748;-66
2022/11/09 00:14:05;;;;;;;5.27;2.87;;;9.90;98.00;;;;;;5032705;28;20513;-67
2022/11/09 00:16:32;;;;;;;3.60;1.97;;;9.90;98.00;;;;;;5032540;28;20880;-66
2022/11/09 00:18:59;;;;;;;5.87;2.70;;;9.90;98.00;;;;;;5032783;28;20464;-66
2022/11/09 00:21:27;;;;;;;4.57;2.53;;;9.90;98.00;;;;;;5032723;28;20482;-66
2022/11/09 00:23:55;;;;;;;3.13;2.27;;;9.90;98.00;;;;;;5032836;28;20463;-67
2022/11/09 00:26:22;;;;;;;6.47;2.70;;;9.90;98.00;;;;;;5032551;28;21161;-66
2022/11/09 00:28:50;;;;;;;6.23;3.10;;;10.00;98.00;;;;;;5032378;28;20455;-67
2022/11/09 00:31:20;;;;;;;3.90;1.97;;;10.00;98.00;;;;;;5050804;28;20987;-67
2022/11/09 00:33:49;;;;;;;3.87;2.40;;;10.00;98.00;;;;;;5052128;28;20495;-66
2022/11/09 00:36:18;;;;;;;9.07;3.50;;;10.00;98.00;;;;;;5052549;28;20493;-67
2022/11/09 00:38:50;;;;;;;3.53;2.50;;;10.00;98.00;;;;;;5052064;28;20886;-67
2022/11/09 00:41:18;;;;;;;5.43;2.63;;;9.90;98.00;;;;;;5052120;28;20465;-66
2022/11/09 00:43:46;;;;;;;4.43;2.60;;;9.90;98.00;;;;;;5052033;28;20463;-67
2022/11/09 00:46:13;;;;;;;4.93;2.87;;;9.90;98.00;;;;;;5051988;28;20596;-66
2022/11/09 00:48:40;;;;;;;4.07;2.37;;;9.80;98.00;;;;;;5051621;28;20458;-66
2022/11/09 00:51:07;;;;;;;4.40;2.50;;;9.80;98.00;;;;;;5051950;28;20507;-66
2022/11/09 00:53:35;;;;;;;2.53;2.33;;;9.80;98.00;;;;;;5051896;28;20504;-66
2022/11/09 00:56:05;;;;;;;3.90;2.80;;;9.90;98.00;;;;;;5034371;28;20944;-67
2022/11/09 00:58:34;;;;;;;9.27;3.33;;;9.90;98.00;;;;;;5051986;28;20511;-67
2022/11/09 01:01:07;;;;;;;5.83;3.10;;;9.90;98.00;;;;;;5051784;28;20469;-67
2022/11/09 01:03:34;;;;;;;5.97;2.70;;;10.00;98.00;;;;;;5051765;28;20517;-66
2022/11/09 01:06:01;;;;;;;4.33;2.90;;;10.10;98.00;;;;;;5051593;28;21048;-66
2022/11/09 01:08:28;;;;;;;6.03;3.30;;;10.20;98.00;;;;;;5051710;28;20453;-67
2022/11/09 01:10:55;;;;;;;3.47;2.40;;;10.00;98.00;;;;;;5033970;28;20507;-67
2022/11/09 01:13:23;;;;;;;4.73;2.90;;;10.00;98.00;;;;;;5034007;28;20483;-66
2022/11/09 01:15:53;;;;;;;6.67;2.63;;;10.00;98.00;;;;;;5051058;28;20481;-67
2022/11/09 01:18:21;;;;;;;4.00;2.80;;;10.20;98.00;;;;;;5051443;28;20821;-66
2022/11/09 01:20:49;;;;;;;3.40;2.60;;;10.20;98.00;;;;;;5051385;28;20950;-66
2022/11/09 01:23:18;;;;;;;6.00;3.00;;;10.10;98.00;;;;;;5051245;28;20798;-67
2022/11/09 01:25:46;;;;;;;5.03;2.40;;;10.20;98.00;;;;;;5051263;28;20856;-66
2022/11/09 01:28:14;;;;;;;4.17;2.53;;;10.10;98.00;;;;;;5033848;28;20832;-66
2022/11/09 01:30:43;;;;;;;7.27;3.17;;;10.10;98.00;;;;;;5051003;28;20537;-66
2022/11/09 01:33:12;;;;;;;5.53;3.13;;;10.10;98.00;;;;;;5051299;28;20453;-66
2022/11/09 01:35:40;;;;;;;5.63;2.73;;;10.10;98.00;;;;;;5051165;28;20482;-66
2022/11/09 01:38:09;;;;;;;4.37;2.70;;;10.00;98.00;;;;;;5033492;28;20959;-66
2022/11/09 01:40:38;;;;;;;3.90;2.77;;;10.00;98.00;;;;;;5050900;28;20466;-67
2022/11/09 01:43:16;;;;;;;3.57;2.20;;;10.00;98.00;;;;;;5051132;28;20463;-66
2022/11/09 01:45:48;;;;;;;3.83;2.00;;;9.90;98.00;;;;;;5051118;28;20464;-67
2022/11/09 01:48:20;;;;;;;4.20;2.53;;;10.00;98.00;;;;;;5051067;28;20468;-66
2022/11/09 01:50:53;;;;;;;5.50;2.43;;;10.00;98.00;;;;;;5051403;28;20493;-67
2022/11/09 01:53:24;;;;;;;4.30;2.00;;;10.00;98.00;;;;;;5034049;28;20481;-67
2022/11/09 01:55:56;;;;;;;3.37;2.20;;;9.90;98.00;;;;;;5050922;28;20486;-66
2022/11/09 01:58:26;;;;;;;4.93;2.43;;;9.90;98.00;;;;;;5051116;28;20458;-67
2022/11/09 02:00:59;;;;;;;5.87;2.80;;;10.00;98.00;;;;;;5050976;28;20484;-67
2022/11/09 02:03:30;;;;;;;5.13;2.97;;;10.00;98.00;;;;;;5050853;28;20452;-66
2022/11/09 02:05:59;;;;;;;1.80;1.73;;;10.00;98.00;;;;;;5051053;28;20507;-67
2022/11/09 02:08:26;;;;;;;5.10;2.43;;;10.00;98.00;;;;;;5050830;28;20959;-66
2022/11/09 02:11:03;;;;;;;2.70;2.17;;;10.00;98.00;;;;;;5050933;28;20462;-67
2022/11/09 02:13:32;;;;;;;3.27;2.23;;;10.00;98.00;;;;;;5050972;28;20826;-66
2022/11/09 02:16:00;;;;;;;6.60;3.53;;;10.10;98.00;;;;;;5050949;28;20844;-67
2022/11/09 02:18:28;;;;;;;6.00;2.53;;;10.00;98.00;;;;;;5050773;28;20455;-66
2022/11/09 02:20:58;;;;;;;3.50;2.50;;;9.90;98.00;;;;;;5050677;28;20519;-66
2022/11/09 02:23:26;;;;;;;4.77;2.60;;;10.10;98.00;;;;;;5050914;28;20470;-67
2022/11/09 02:25:59;;;;;;;3.50;2.50;;;10.20;98.00;;;;;;5050922;28;20450;-66
2022/11/09 02:28:27;;;;;;;4.43;2.50;;;10.20;98.00;;;;;;5053118;28;20464;-67
2022/11/09 02:30:57;;;;;;;3.87;2.63;;;10.30;98.00;;;;;;5054653;28;20966;-67
2022/11/09 02:33:24;;;;;;;3.50;2.63;;;10.20;98.00;;;;;;5054611;28;20514;-67
2022/11/09 02:35:51;;;;;;;4.63;2.20;;;10.10;98.00;;;;;;5054248;28;20481;-67
2022/11/09 02:38:20;;;;;;;3.40;2.30;;;10.00;98.00;;;;;;5054357;28;20475;-66
2022/11/09 02:40:51;;;;;;;5.67;3.20;;;10.10;98.00;;;;;;5054403;28;20464;-67
2022/11/09 02:43:19;;;;;;;4.10;2.60;;;10.20;98.00;;;;;;5054600;28;20887;-67
2022/11/09 02:45:46;;;;;;;4.50;2.70;;;10.20;98.00;;;;;;5054372;28;20468;-66
2022/11/09 02:48:13;;;;;;;3.87;2.00;;;10.30;98.00;;;;;;5054485;28;20467;-67
2022/11/09 02:50:41;;;;;;;4.20;2.07;;;10.40;98.00;;;;;;5054022;28;20476;-66
2022/11/09 02:53:08;;;;;;;3.80;2.60;;;10.60;98.00;;;;;;5036624;28;20468;-67
2022/11/09 02:55:37;;;;;;;4.60;2.60;;;10.50;98.00;;;;;;5054161;28;20792;-66
2022/11/09 02:58:04;;;;;;;3.10;2.47;;;10.40;98.00;;;;;;5054059;28;20983;-66
2022/11/09 03:00:31;;;;;;;5.00;2.80;;;10.30;98.00;;;;;;5036266;28;20457;-67
2022/11/09 03:02:58;;;;;;;6.07;2.40;;;10.30;98.00;;;;;;5053883;28;20494;-67
2022/11/09 03:05:25;;;;;;;6.53;2.83;;;10.30;98.00;;;;;;5053848;28;20465;-67
2022/11/09 03:07:52;;;;;;;3.60;2.33;;;10.30;98.00;;;;;;5053865;28;20968;-67
2022/11/09 03:10:19;;;;;;;4.53;2.67;;;10.30;98.00;;;;;;5053820;28;20517;-66
2022/11/09 03:12:49;;;;;;;3.83;2.20;;;10.40;98.00;;;;;;5053800;28;20865;-67
2022/11/09 03:15:17;;;;;;;8.17;2.77;;;10.70;98.00;;;;;;5036206;28;20591;-66
2022/11/09 03:17:44;;;;;;;3.90;2.60;;;10.70;98.00;;;;;;5053885;28;20488;-67
2022/11/09 03:20:12;;;;;;;3.90;2.70;;;10.50;98.00;;;;;;5053597;28;20469;-66
2022/11/09 03:22:39;;;;;;;5.43;3.00;;;10.40;98.00;;;;;;5053530;28;20484;-67
2022/11/09 03:25:07;;;;;;;4.07;2.27;;;10.40;98.00;;;;;;5053793;28;20454;-66
2022/11/09 03:27:34;;;;;;;5.37;2.30;;;10.30;98.00;;;;;;5035931;28;20461;-67
2022/11/09 03:30:03;;;;;;;3.77;2.33;;;10.30;98.00;;;;;;5053397;28;20488;-66
2022/11/09 03:32:30;;;;;;;5.17;2.63;;;10.50;98.00;;;;;;5053318;28;20822;-66
2022/11/09 03:34:58;;;;;;;3.17;2.30;;;10.70;98.00;;;;;;5053489;28;21013;-66
2022/11/09 03:37:25;;;;;;;3.77;2.33;;;10.60;98.00;;;;;;5053368;28;20465;-66
2022/11/09 03:39:52;;;;;;;3.77;2.47;;;10.50;98.00;;;;;;5053155;28;20538;-67
2022/11/09 03:42:19;;;;;;;4.23;2.10;;;10.50;98.00;;;;;;5053359;28;20458;-67
2022/11/09 03:44:46;;;;;;;3.53;2.30;;;10.50;98.00;;;;;;5053248;28;20477;-66
2022/11/09 03:47:16;;;;;;;3.73;2.60;;;10.60;98.00;;;;;;5053175;28;20520;-66
2022/11/09 03:49:43;;;;;;;2.83;2.40;;;10.70;98.00;;;;;;5053022;28;20868;-67
2022/11/09 03:52:10;;;;;;;2.97;1.90;;;10.60;98.00;;;;;;5053333;28;20466;-67
2022/11/09 03:54:37;;;;;;;3.57;2.20;;;10.60;98.00;;;;;;5052950;28;20502;-67
2022/11/09 03:57:04;;;;;;;3.50;2.40;;;10.70;98.00;;;;;;5053160;28;20461;-66
2022/11/09 03:59:31;;;;;;;3.73;2.80;;;10.70;98.00;;;;;;5052790;28;20465;-67
2022/11/09 04:01:58;;;;;;;3.70;2.43;;;10.80;98.00;;;;;;5035358;28;20460;-66
2022/11/09 04:04:27;;;;;;;3.57;2.47;;;10.70;98.00;;;;;;5052916;28;20469;-67
2022/11/09 04:06:54;;;;;;;5.07;2.73;;;10.80;98.00;;;;;;5052957;28;20464;-66
2022/11/09 04:09:21;;;;;;;5.53;2.50;;;10.70;98.00;;;;;;5052587;28;20463;-66
2022/11/09 04:11:49;;;;;;;4.70;2.37;;;10.70;98.00;;;;;;5035024;28;20465;-66
2022/11/09 04:14:16;;;;;;;6.73;2.80;;;10.60;98.00;;;;;;5052774;28;20501;-67
2022/11/09 04:16:43;;;;;;;4.57;2.40;;;10.70;98.00;;;;;;5052536;28;21004;-66
2022/11/09 04:19:10;;;;;;;3.37;2.33;;;10.60;98.00;;;;;;5052549;28;20455;-67
2022/11/09 04:21:39;;;;;;;2.87;2.23;;;10.50;98.00;;;;;;5052396;28;20472;-67
2022/11/09 04:24:07;;;;;;;2.80;1.93;;;10.40;98.00;;;;;;5052399;28;20455;-66
2022/11/09 04:26:34;;;;;;;2.57;2.10;;;10.40;98.00;;;;;;5052225;28;20461;-67
2022/11/09 04:29:01;;;;;;;3.37;1.97;;;10.40;98.00;;;;;;5034717;28;20467;-67
2022/11/09 04:31:29;;;;;;;4.90;2.30;;;10.40;98.00;;;;;;5032536;28;20475;-67
2022/11/09 04:33:56;;;;;;;3.83;2.50;;;10.70;98.00;;;;;;5032296;28;20818;-66
2022/11/09 04:36:23;;;;;;;7.03;3.57;;;10.90;98.00;;;;;;4998711;28;20485;-67
2022/11/09 04:38:51;;;;;;;6.00;2.53;;;11.00;98.00;;;;;;5032405;28;20957;-67
2022/11/09 04:41:19;;;;;;;3.00;2.33;;;10.90;98.00;;;;;;5032170;28;20464;-66
2022/11/09 04:43:46;;;;;;;4.40;2.97;;;10.90;98.00;;;;;;5032163;28;20509;-66
2022/11/09 04:46:13;;;;;;;2.80;2.07;;;10.70;98.00;;;;;;5030717;28;20576;-67
2022/11/09 04:48:40;;;;;;;4.30;2.43;;;10.60;98.00;;;;;;5032053;28;20588;-67
2022/11/09 04:51:10;;;;;;;5.43;2.47;;;10.70;98.00;;;;;;5031310;28;20457;-66
2022/11/09 04:53:40;;;;;;;5.67;3.17;;;10.60;98.00;;;;;;5031942;28;20489;-67
2022/11/09 04:56:09;;;;;;;5.57;2.87;;;10.50;98.00;;;;;;5031952;28;20485;-66
2022/11/09 04:58:36;;;;;;;3.47;2.33;;;10.60;98.00;;;;;;5031915;28;20454;-67
2022/11/09 05:01:04;;;;;;;3.73;2.73;;;10.50;98.00;;;;;;5031891;28;20457;-66
2022/11/09 05:03:31;;;;;;;6.27;2.90;;;10.70;98.00;;;;;;5031625;28;20494;-66
2022/11/09 05:05:58;;;;;;;2.90;2.17;;;10.70;98.00;;;;;;5031665;28;20455;-66
2022/11/09 05:08:26;;;;;;;2.97;2.40;;;11.00;98.00;;;;;;5031734;28;20468;-66
2022/11/09 05:10:57;;;;;;;4.53;2.63;;;11.00;98.00;;;;;;5014141;28;20520;-66
2022/11/09 05:13:27;;;;;;;5.07;2.30;;;11.00;98.00;;;;;;5031674;28;20552;-67
2022/11/09 05:15:55;;;;;;;4.83;2.50;;;10.90;98.00;;;;;;5031727;28;20492;-66
2022/11/09 05:18:22;;;;;;;3.73;2.40;;;11.00;98.00;;;;;;5032110;28;20801;-67
2022/11/09 05:20:50;;;;;;;3.97;2.50;;;11.00;98.00;;;;;;5013883;28;20461;-66
2022/11/09 05:26:02;;;;;;;2.43;2.20;;;10.70;98.00;;;;;;5031604;28;20442;-67
2022/11/09 05:28:30;;;;;;;3.07;2.37;;;10.60;98.00;;;;;;5031691;28;20894;-67
2022/11/09 05:30:57;;;;;;;3.53;2.70;;;10.70;98.00;;;;;;5047354;28;20464;-66
2022/11/09 05:33:24;;;;;;;3.50;2.30;;;10.70;98.00;;;;;;5051428;28;20485;-67
2022/11/09 05:35:53;;;;;;;5.77;2.77;;;10.60;98.00;;;;;;5051023;28;20534;-66
2022/11/09 05:38:20;;;;;;;7.07;2.90;;;10.60;98.00;;;;;;5051238;28;20469;-66
2022/11/09 05:40:48;;;;;;;3.00;2.50;;;10.70;98.00;;;;;;5051021;28;20459;-67
2022/11/09 05:43:15;;;;;;;2.77;2.07;;;10.90;98.00;;;;;;5051138;28;20981;-67
2022/11/09 05:45:44;;;;;;;2.37;1.77;;;11.10;98.00;;;;;;5051251;28;20446;-66
2022/11/09 05:48:12;;;;;;;3.83;2.17;;;11.10;98.00;;;;;;5051267;28;20593;-66
2022/11/09 05:50:42;;;;;;;6.33;2.87;;;11.00;98.00;;;;;;5051281;28;20507;-66
2022/11/09 05:53:11;;;;;;;4.07;2.20;;;11.00;98.00;;;;;;5051262;28;20512;-66
2022/11/09 05:55:40;;;;;;;3.53;2.30;;;10.90;98.00;;;;;;5050972;28;20497;-66
2022/11/09 05:58:07;;;;;;;4.20;2.90;;;10.80;98.00;;;;;;5051074;28;20486;-66
2022/11/09 06:00:35;;;;;;;7.00;2.30;;;10.70;98.00;;;;;;5051078;28;21006;-67
2022/11/09 06:03:05;;;;;;;7.17;3.17;;;10.70;98.00;;;;;;5054817;28;20464;-66
2022/11/09 06:05:33;;;;;;;6.57;2.40;;;10.80;98.00;;;;;;5054898;28;20464;-66
2022/11/09 06:08:03;;;;;;;4.27;2.77;;;10.90;98.00;;;;;;5055053;28;20467;-67
2022/11/09 06:10:30;;;;;;;3.17;2.40;;;10.90;98.00;;;;;;5055108;28;20462;-66
2022/11/09 06:12:58;;;;;;;3.20;2.07;;;10.90;98.00;;;;;;5055283;28;20460;-66
2022/11/09 06:15:25;;;;;;;3.80;2.07;;;10.90;98.00;;;;;;5037124;28;20485;-66
2022/11/09 06:17:52;;;;;;;3.00;2.30;;;10.80;98.00;;;;;;5054931;28;20460;-66
2022/11/09 06:20:22;;;;;;;5.63;2.30;;;10.80;98.00;;;;;;5055050;28;20672;-66
2022/11/09 06:22:54;;;;;;;3.07;2.10;;;10.80;98.00;;;;;;5054922;28;20834;-66
2022/11/09 06:25:21;;;;;;;4.10;2.13;;;10.90;98.00;;;;;;5054997;28;20497;-67
2022/11/09 06:27:48;;;;;;;2.63;1.93;;;10.80;98.00;;;;;;5054640;28;20969;-67
2022/11/09 06:30:16;;;;;;;3.33;2.50;;;10.80;98.00;;;;;;5054455;28;20485;-67
2022/11/09 06:32:43;;;;;;;3.40;2.70;;;10.70;98.00;;;;;;5054469;28;20852;-66
2022/11/09 06:35:10;;;;;;;3.50;2.67;;;10.70;98.00;;;;;;5054381;28;20457;-66
2022/11/09 06:37:39;;;;;;;3.50;2.43;;;10.90;98.00;;;;;;5054393;28;20515;-67
2022/11/09 06:40:07;;;;;;;2.57;2.00;;;11.00;98.00;;;;;;5054475;28;20502;-66
2022/11/09 06:42:34;;;;;;;3.30;2.23;;;11.00;98.00;;;;;;5054290;28;20492;-66
2022/11/09 06:45:01;;;;;;;6.13;2.70;;;11.00;98.00;;;;;;5054310;28;20458;-66
2022/11/09 06:47:28;;;;;;;3.37;2.27;;;10.90;98.00;;;;;;5054313;28;21017;-66
2022/11/09 06:49:56;;;;;;;3.57;2.33;;;10.80;98.00;;;;;;5054645;28;20457;-67
2022/11/09 06:52:25;;;;;;;3.93;2.33;;;10.70;98.00;;;;;;5054224;28;20465;-67
2022/11/09 06:54:53;;;;;;;4.67;2.67;;;10.70;98.00;;;;;;5053998;28;20840;-66
2022/11/09 06:57:20;;;;;;;2.83;2.00;;;10.60;98.00;;;;;;5054097;28;20511;-67
2022/11/09 06:59:48;;;;;;;5.73;3.00;;;10.60;98.00;;;;;;5054003;28;20460;-66
2022/11/09 07:02:17;;;;;;;3.43;2.63;;;10.70;98.00;;;;;;5036559;28;20796;-67
2022/11/09 07:04:44;;;;;;;3.70;2.20;;;10.80;98.00;;;;;;5053915;28;20539;-67
2022/11/09 07:07:11;;;;;;;5.53;3.63;;;10.80;98.00;;;;;;5054255;28;20466;-67
2022/11/09 07:09:38;;;;;;;3.10;2.23;;;10.80;98.00;;;;;;5054060;28;20501;-66
2022/11/09 07:12:07;;;;;;;4.17;2.70;;;10.80;98.00;;;;;;5053703;28;20454;-66
2022/11/09 07:14:36;;;;;;;4.20;2.60;;;10.80;98.00;;;;;;5053274;28;20461;-66
2022/11/09 07:17:03;;;;;;;3.70;2.47;;;10.80;98.00;;;;;;5051861;28;20489;-66
2022/11/09 07:19:30;;;;;;;4.23;2.90;;;10.80;98.00;;;;;;5053957;28;20464;-67
2022/11/09 07:21:58;;;;;;;3.00;1.90;;;10.90;98.00;;;;;;5053740;28;20763;-66
2022/11/09 07:24:25;;;;;;;4.93;2.83;;;10.80;98.00;;;;;;5053857;28;20461;-63
2022/11/09 07:26:52;;;;;;;3.50;2.13;;;10.90;98.00;;;;;;5053370;28;20452;-63
2022/11/09 07:29:20;;;;;;;3.70;2.63;;;11.00;98.00;;;;;;5053802;28;20469;-64
2022/11/09 07:31:47;;;;;;;5.77;2.53;;;11.00;98.00;;;;;;5053581;28;20660;-63
2022/11/09 07:34:15;;;;;;;3.30;2.70;;;11.10;98.00;;;;;;5019773;28;20494;-65
2022/11/09 07:36:43;;;;;;;4.47;2.30;;;11.20;98.00;;;;;;5053217;28;20482;-65
2022/11/09 07:39:10;;;;;;;4.20;2.43;;;11.30;98.00;;;;;;5053327;28;20555;-64
2022/11/09 07:41:37;;;;;;;5.60;2.30;;;11.20;98.00;;;;;;5052950;28;20454;-64
2022/11/09 07:44:06;;;;;;;3.13;2.10;;;11.10;98.00;;;;;;5053345;28;20468;-64
2022/11/09 07:46:34;;;;;;;5.57;2.97;;;11.10;98.00;;;;;;5052755;28;20462;-63
2022/11/09 07:49:04;;;;;;;5.27;2.80;;;11.10;98.00;;;;;;5053267;28;20461;-65
2022/11/09 07:51:32;;;;;;;5.43;2.80;;;11.20;98.00;;;;;;5053115;28;20946;-64
2022/11/09 07:53:59;;;;;;;5.10;2.97;;;11.40;98.00;;;;;;5053094;28;20464;-64
2022/11/09 07:56:26;;;;;;;5.17;2.90;;;11.40;98.00;;;;;;5052758;28;20484;-63
2022/11/09 07:58:53;;;;;;;10.50;3.33;;;11.20;98.00;;;;;;5053034;28;20458;-64
2022/11/09 08:01:20;;;;;;;10.27;3.40;;;11.10;98.00;;;;;;5052897;28;20825;-64
2022/11/09 08:03:49;;;;;;;5.80;2.70;;;11.10;98.00;;;;;;5052872;28;20454;-64
2022/11/09 08:06:17;;;;;;;5.60;2.27;;;11.00;98.00;;;;;;5052845;28;20453;-64
2022/11/09 08:08:44;;;;;;;4.50;2.67;;;11.00;98.00;;;;;;5052906;28;20450;-65
2022/11/09 08:11:12;;;;;;;3.17;2.10;;;11.00;98.00;;;;;;5053292;28;20465;-63
2022/11/09 08:13:39;;;;;;;3.10;1.70;;;11.10;98.00;;;;;;5053234;28;20458;-64
2022/11/09 08:16:06;;;;;;;2.70;1.57;;;11.20;98.00;;;;;;5052752;28;20485;-64
2022/11/09 08:18:33;;;;;;;1.50;1.30;;;11.30;98.00;;;;;;5052919;28;20459;-64
2022/11/09 08:21:04;;;;;;;2.70;1.67;;;11.40;98.00;;;;;;5052561;28;20465;-64
2022/11/09 08:23:34;;;;;;;1.27;1.27;;;11.60;98.00;;;;;;5052435;28;20954;-64
2022/11/09 08:26:03;;;;;;;1.50;1.30;;;11.70;98.00;;;;;;5051254;28;20978;-65
2022/11/09 08:28:31;;;;;;;1.50;1.40;;;11.80;98.00;;;;;;5034965;28;20518;-64
2022/11/09 08:30:59;;;;;;;2.07;1.77;;;12.00;98.00;;;;;;5049848;28;20469;-63
2022/11/09 08:33:29;;;;;;;2.70;1.97;;;12.10;98.00;;;;;;5052361;28;20513;-67
2022/11/09 08:35:56;;;;;;;1.83;1.50;;;12.10;98.00;;;;;;5052235;28;20458;-67
2022/11/09 08:38:32;;;;;;;2.17;2.00;;;12.50;98.00;;;;;;5048844;28;20463;-68
2022/11/09 08:40:59;;;;;;;3.43;1.73;;;13.10;98.00;;;;;;5049676;28;21017;-67
2022/11/09 08:43:30;;;;;;;3.73;1.70;;;13.80;98.00;;;;;;5049570;28;20557;-68
2022/11/09 08:45:58;;;;;;;5.30;2.83;;;14.30;98.00;;;;;;5049231;28;20459;-63
2022/11/09 08:48:29;;;;;;;4.33;2.80;;;14.60;98.00;;;;;;5049646;28;21095;-64
2022/11/09 08:50:58;;;;;;;4.13;2.67;;;14.50;98.00;;;;;;5047277;28;20473;-65
2022/11/09 08:53:28;;;;;;;4.90;3.10;;;14.30;98.00;;;;;;5049322;28;20441;-65
2022/11/09 08:55:56;;;;;;;3.43;2.37;;;14.00;98.00;;;;;;5049374;28;20468;-65
2022/11/09 08:58:23;;;;;;;6.47;3.43;;;13.80;98.00;;;;;;5049547;28;20826;-65
2022/11/09 09:00:52;;;;;;;5.17;2.87;;;13.70;98.00;;;;;;5049279;28;20518;-64
2022/11/09 09:03:19;;;;;;;3.20;1.83;;;13.50;98.00;;;;;;5048792;28;20481;-64
2022/11/09 09:05:46;;;;;;;2.70;1.67;;;13.40;98.00;;;;;;5030922;28;20857;-65
2022/11/09 09:08:14;;;;;;;2.97;2.20;;;13.40;98.00;;;;;;5049016;28;20502;-65
2022/11/09 09:10:43;;;;;;;2.93;2.40;;;13.30;98.00;;;;;;5049088;28;20544;-64
2022/11/09 09:13:10;;;;;;;2.90;2.13;;;13.30;98.00;;;;;;5049272;28;20462;-65
2022/11/09 09:15:37;;;;;;;1.90;1.60;;;13.40;98.00;;;;;;5049301;28;20534;-65
2022/11/09 09:18:05;;;;;;;2.23;1.90;;;13.40;98.00;;;;;;5048874;28;20533;-64
2022/11/09 09:20:32;;;;;;;3.33;2.60;;;13.30;98.00;;;;;;5048929;28;20461;-63
2022/11/09 09:23:00;;;;;;;3.90;2.00;;;13.30;98.00;;;;;;5031087;28;20467;-65
2022/11/09 09:25:28;;;;;;;3.17;1.90;;;13.20;98.00;;;;;;5031030;28;20471;-65
2022/11/09 09:27:56;;;;;;;2.50;1.90;;;13.20;98.00;;;;;;5048876;28;20472;-66
2022/11/09 09:30:24;;;;;;;2.37;1.73;;;13.20;98.00;;;;;;5048874;28;22255;-64
2022/11/09 09:32:51;;;;;;;6.00;3.30;;;13.30;98.00;;;;;;5048630;28;20458;-65
2022/11/09 09:35:18;;;;;;;2.50;1.83;;;13.20;98.00;;;;;;5048969;28;20566;-65
2022/11/09 09:37:46;;;;;;;4.80;2.40;;;13.20;98.00;;;;;;5048420;28;20499;-65
2022/11/09 09:40:23;;;;;;;5.73;2.07;;;13.20;98.00;;;;;;5048836;28;20859;-64
2022/11/09 09:42:53;;;;;;;7.60;2.27;;;13.30;98.00;;;;;;5048623;28;21010;-65
2022/11/09 09:45:28;;;;;;;2.70;1.90;;;13.20;98.00;;;;;;5050602;28;20833;-65
2022/11/09 09:48:00;;;;;;;2.70;1.70;;;13.20;98.00;;;;;;5050196;28;20852;-64
2022/11/09 09:50:36;;;;;;;3.77;2.37;;;13.20;98.00;;;;;;5046240;28;20460;-64
2022/11/09 09:53:13;;;;;;;2.60;1.93;;;13.30;98.00;;;;;;5048553;28;20463;-65
2022/11/09 09:55:44;;;;;;;4.37;2.40;;;13.30;98.00;;;;;;5048751;28;20465;-64
2022/11/09 09:58:13;;;;;;;4.47;2.30;;;13.40;98.00;;;;;;5048570;28;20490;-64
2022/11/09 10:00:44;;;;;;;3.00;2.10;;;13.40;98.00;;;;;;5048668;28;20454;-65
2022/11/09 10:03:18;;;;;;;4.20;2.10;;;13.40;98.00;;;;;;5048779;28;20454;-64
2022/11/09 10:05:54;;;;;;;2.33;1.80;;;13.40;98.00;;;;;;5048773;28;20536;-65
2022/11/09 10:08:33;;;;;;;2.80;1.80;;;13.40;98.00;;;;;;5048692;28;20459;-65
2022/11/09 10:11:12;;;;;;;1.87;1.70;;;13.50;98.00;;;;;;5048439;28;20868;-65
2022/11/09 10:13:56;;;;;;;2.30;1.40;;;13.50;98.00;;;;;;5048458;28;21123;-64
2022/11/09 10:16:34;;;;;;;4.60;2.30;;;13.50;98.00;;;;;;5048661;28;20548;-65
2022/11/09 10:19:37;;;;;;;2.33;1.87;;;13.80;98.00;;;;;;5048254;28;20461;-64
2022/11/09 10:22:15;;;;;;;6.40;2.97;;;13.90;98.00;;;;;;5023298;28;20863;-65
2022/11/09 10:24:51;;;;;;;4.10;2.47;;;14.10;98.00;;;;;;5048185;28;20462;-65
2022/11/09 10:27:27;;;;;;;2.30;2.10;;;14.20;98.00;;;;;;5048143;28;20459;-66
2022/11/09 10:29:55;;;;;;;2.60;2.00;;;14.20;98.00;;;;;;5047948;28;20525;-65
2022/11/09 10:32:25;;;;;;;2.40;2.00;;;14.20;98.00;;;;;;5030483;28;20514;-64
2022/11/09 10:34:56;;;;;;;3.87;2.10;;;14.20;98.00;;;;;;5048083;28;20457;-65
2022/11/09 10:37:28;;;;;;;2.77;2.03;;;14.30;98.00;;;;;;5047960;28;20492;-65
2022/11/09 10:40:02;;;;;;;2.57;1.97;;;14.30;98.00;;;;;;5047896;28;20465;-64
2022/11/09 10:42:29;;;;;;;1.87;1.50;;;14.40;98.00;;;;;;5048138;28;20974;-65
2022/11/09 10:44:57;;;;;;;2.33;1.63;;;14.60;98.00;;;;;;5048202;28;20465;-65
2022/11/09 10:47:26;;;;;;;4.20;2.30;;;14.80;98.00;;;;;;5048311;28;20455;-65
2022/11/09 10:50:08;;;;;;;8.73;3.40;;;15.10;98.00;;;;;;5049224;28;20916;-66
2022/11/09 10:52:39;;;;;;;8.60;2.30;;;15.20;98.00;;;;;;5051453;28;21010;-65
2022/11/09 10:55:26;;;;;;;4.47;2.33;;;15.30;98.00;;;;;;5051830;28;20500;-64
2022/11/09 10:58:04;;;;;;;2.67;1.80;;;15.40;98.00;;;;;;5051681;28;21017;-65
2022/11/09 11:00:32;;;;;;;2.60;1.73;;;15.40;98.00;;;;;;5034552;28;21068;-66
2022/11/09 11:03:11;;;;;;;4.23;2.10;;;15.40;98.00;;;;;;5051619;28;20457;-65
2022/11/09 11:05:38;;;;;;;3.47;1.63;;;15.40;98.00;;;;;;5051183;28;20552;-65
2022/11/09 11:08:25;;;;;;;3.23;1.80;;;15.50;98.00;;;;;;5051678;28;20855;-65
2022/11/09 11:11:07;;;;;;;2.00;1.73;;;15.50;98.00;;;;;;5051220;28;20885;-64
2022/11/09 11:13:35;;;;;;;3.60;2.10;;;15.70;98.00;;;;;;5051237;28;20471;-65
2022/11/09 11:16:15;;;;;;;2.30;2.10;;;15.80;98.00;;;;;;5050824;28;20512;-66
2022/11/09 11:18:47;;;;;;;2.93;1.87;;;16.10;98.00;;;;;;5034041;28;20925;-66
2022/11/09 11:21:16;;;;;;;3.50;2.30;;;16.20;98.00;;;;;;5051104;28;20469;-65
2022/11/09 11:23:44;;;;;;;3.50;2.23;;;16.20;98.00;;;;;;5051578;28;20814;-66
2022/11/09 11:26:29;;;;;;;3.53;2.50;;;16.20;98.00;;;;;;5051128;28;20473;-66
2022/11/09 11:29:01;;;;;;;3.93;2.57;;;16.10;98.00;;;;;;5045146;28;20492;-65
2022/11/09 11:31:28;;;;;;;4.53;2.20;;;15.90;98.00;;;;;;5050918;28;20934;-65
2022/11/09 11:33:59;;;;;;;4.07;2.50;;;15.80;98.00;;;;;;5051213;28;20535;-65
2022/11/09 11:36:38;;;;;;;4.07;2.43;;;15.70;98.00;;;;;;5051047;28;20470;-64
2022/11/09 11:39:15;;;;;;;3.00;2.07;;;15.60;98.00;;;;;;5050030;28;20465;-64
2022/11/09 11:42:02;;;;;;;5.00;2.20;;;15.70;98.00;;;;;;5050754;28;20500;-65
2022/11/09 11:44:45;;;;;;;3.90;2.43;;;15.80;98.00;;;;;;5033089;28;20799;-65
2022/11/09 11:47:19;;;;;;;3.33;2.20;;;15.80;98.00;;;;;;5033967;28;20464;-65
2022/11/09 11:50:06;;;;;;;4.87;2.57;;;15.70;98.00;;;;;;5048559;28;20460;-64
2022/11/09 11:52:45;;;;;;;3.23;1.90;;;15.70;98.00;;;;;;5050985;28;20873;-65
2022/11/09 11:55:36;;;;;;;5.93;2.07;;;15.80;98.00;;;;;;5050380;28;20453;-65
2022/11/09 11:58:19;;;;;;;3.47;2.07;;;15.60;98.00;;;;;;5050739;28;20547;-65
2022/11/09 12:00:55;;;;;;;2.90;1.90;;;15.70;98.00;;;;;;5050199;28;20468;-65
2022/11/09 12:03:38;;;;;;;3.93;2.27;;;15.70;98.00;;;;;;5042549;28;20461;-65
2022/11/09 12:06:42;;;;;;;3.03;1.97;;;15.50;98.00;;;;;;5033697;28;20472;-65
2022/11/09 12:09:30;;;;;;;2.70;1.70;;;15.50;98.00;;;;;;5049891;28;20469;-65
2022/11/09 12:12:13;;;;;;;2.83;2.13;;;15.30;98.00;;;;;;5042087;28;20465;-65
2022/11/09 12:14:51;;;;;;;3.87;2.00;;;15.20;98.00;;;;;;5043949;28;20930;-65
2022/11/09 12:17:30;;;;;;;2.83;1.90;;;15.20;98.00;;;;;;5050233;28;20835;-65
2022/11/09 12:20:18;;;;;;;2.60;1.93;;;15.20;98.00;;;;;;5049354;28;20456;-65
2022/11/09 12:22:57;;;;;;;3.00;2.00;;;15.20;98.00;;;;;;5031142;28;20541;-65
2022/11/09 12:25:30;;;;;;;2.00;1.70;;;15.10;98.00;;;;;;5050431;28;20464;-65
2022/11/09 12:28:11;;;;;;;2.60;1.90;;;15.10;98.00;;;;;;5050277;28;20458;-65
2022/11/09 12:30:49;;;;;;;3.20;2.00;;;15.10;98.00;;;;;;5049677;28;20594;-65
2022/11/09 12:33:22;;;;;;;2.87;2.00;;;15.20;98.00;;;;;;5033153;28;20874;-65
2022/11/09 12:35:54;;;;;;;4.17;2.20;;;15.20;98.00;;;;;;5052125;28;20449;-65
2022/11/09 12:38:29;;;;;;;3.13;2.10;;;15.30;98.00;;;;;;5052357;28;20542;-65
2022/11/09 12:41:01;;;;;;;3.00;2.10;;;15.20;98.00;;;;;;5052118;28;20591;-65
2022/11/09 12:43:32;;;;;;;3.10;2.37;;;15.20;98.00;;;;;;5052255;28;20980;-65
2022/11/09 12:46:02;;;;;;;4.90;2.37;;;15.20;98.00;;;;;;5052283;28;20512;-65
2022/11/09 12:48:34;;;;;;;2.87;1.80;;;15.30;98.00;;;;;;5052289;28;20660;-65
2022/11/09 12:51:02;;;;;;;2.90;1.90;;;15.30;98.00;;;;;;5052116;28;20857;-65
2022/11/09 12:53:34;;;;;;;2.70;1.83;;;15.40;98.00;;;;;;5051924;28;20453;-65
2022/11/09 12:56:06;;;;;;;3.30;2.20;;;15.40;98.00;;;;;;5033944;28;20454;-65
2022/11/09 12:58:37;;;;;;;3.43;2.20;;;15.40;98.00;;;;;;5033626;28;20857;-65
2022/11/09 13:01:06;;;;;;;3.93;2.57;;;15.40;98.00;;;;;;5051791;28;20457;-65
2022/11/09 13:03:35;;;;;;;3.03;1.80;;;15.40;98.00;;;;;;5051998;28;20446;-65
2022/11/09 13:06:17;;;;;;;5.03;2.30;;;15.40;98.00;;;;;;5051841;28;20512;-65